sensor_id;sensor_type;location;lat;lon;timestamp;pressure;altitude;pressure_sealevel;temperature;humidity
6150;BME280;3106;42.670;23.318;2023-01-19T00:00:34;93272.19;;;15.52;46.87
6150;BME280;3106;42.670;23.318;2023-01-19T00:03:05;93259.13;;;15.47;46.83
6150;BME280;3106;42.670;23.318;2023-01-19T00:05:40;93250.63;;;15.52;46.90
6150;BME280;3106;42.670;23.318;2023-01-19T00:08:07;93261.78;;;15.51;47.67
6150;BME280;3106;42.670;23.318;2023-01-19T00:10:40;93251.38;;;15.53;47.34
6150;BME280;3106;42.670;23.318;2023-01-19T00:13:09;93257.53;;;15.53;47.52
6150;BME280;3106;42.670;23.318;2023-01-19T00:15:36;93251.03;;;15.51;47.55
6150;BME280;3106;42.670;23.318;2023-01-19T00:18:03;93260.28;;;15.46;47.47
6150;BME280;3106;42.670;23.318;2023-01-19T00:20:29;93261.03;;;15.50;47.62
6150;BME280;3106;42.670;23.318;2023-01-19T00:22:59;93225.84;;;15.31;47.46
6150;BME280;3106;42.670;23.318;2023-01-19T00:25:29;93245.72;;;15.44;47.30
6150;BME280;3106;42.670;23.318;2023-01-19T00:27:56;93253.31;;;15.52;47.40
6150;BME280;3106;42.670;23.318;2023-01-19T00:30:24;93204.00;;;15.18;47.56
6150;BME280;3106;42.670;23.318;2023-01-19T00:32:51;93216.63;;;15.28;46.99
6150;BME280;3106;42.670;23.318;2023-01-19T00:35:18;93251.19;;;15.33;47.56
6150;BME280;3106;42.670;23.318;2023-01-19T00:37:44;93278.84;;;15.41;47.77
6150;BME280;3106;42.670;23.318;2023-01-19T00:40:13;93222.38;;;15.27;47.29
6150;BME280;3106;42.670;23.318;2023-01-19T00:42:40;93236.25;;;15.25;47.68
6150;BME280;3106;42.670;23.318;2023-01-19T00:45:10;93244.56;;;15.41;47.41
6150;BME280;3106;42.670;23.318;2023-01-19T00:47:39;93245.88;;;15.23;47.00
6150;BME280;3106;42.670;23.318;2023-01-19T00:50:09;93185.59;;;15.13;46.86
6150;BME280;3106;42.670;23.318;2023-01-19T00:52:37;93181.78;;;15.07;46.81
6150;BME280;3106;42.670;23.318;2023-01-19T00:55:05;93262.38;;;15.25;47.38
6150;BME280;3106;42.670;23.318;2023-01-19T00:57:32;93252.34;;;15.32;47.26
6150;BME280;3106;42.670;23.318;2023-01-19T00:59:59;93239.81;;;15.12;47.32
6150;BME280;3106;42.670;23.318;2023-01-19T01:02:30;93228.53;;;15.24;47.11
6150;BME280;3106;42.670;23.318;2023-01-19T01:04:59;93213.97;;;15.21;47.22
6150;BME280;3106;42.670;23.318;2023-01-19T01:07:27;93231.97;;;14.88;47.11
6150;BME280;3106;42.670;23.318;2023-01-19T01:09:54;93278.84;;;15.41;46.57
6150;BME280;3106;42.670;23.318;2023-01-19T01:12:22;93196.09;;;15.01;46.73
6150;BME280;3106;42.670;23.318;2023-01-19T01:14:48;93249.34;;;15.23;46.85
6150;BME280;3106;42.670;23.318;2023-01-19T01:17:15;93243.47;;;15.35;46.88
6150;BME280;3106;42.670;23.318;2023-01-19T01:19:42;93241.91;;;15.38;46.51
6150;BME280;3106;42.670;23.318;2023-01-19T01:22:10;93210.91;;;15.19;46.84
6150;BME280;3106;42.670;23.318;2023-01-19T01:24:37;93235.16;;;15.19;46.60
6150;BME280;3106;42.670;23.318;2023-01-19T01:27:04;93239.72;;;15.22;46.66
6150;BME280;3106;42.670;23.318;2023-01-19T01:29:31;93223.22;;;15.20;46.17
6150;BME280;3106;42.670;23.318;2023-01-19T01:31:59;93235.09;;;15.23;46.22
6150;BME280;3106;42.670;23.318;2023-01-19T01:34:26;93242.00;;;15.24;45.66
6150;BME280;3106;42.670;23.318;2023-01-19T01:36:53;93260.28;;;15.46;45.28
6150;BME280;3106;42.670;23.318;2023-01-19T01:39:21;93237.34;;;15.31;45.94
6150;BME280;3106;42.670;23.318;2023-01-19T01:41:52;93229.03;;;15.15;45.28
6150;BME280;3106;42.670;23.318;2023-01-19T01:44:44;93291.78;;;15.53;45.28
6150;BME280;3106;42.670;23.318;2023-01-19T01:47:19;93241.16;;;15.37;45.07
6150;BME280;3106;42.670;23.318;2023-01-19T01:49:50;93271.81;;;15.50;44.88
6150;BME280;3106;42.670;23.318;2023-01-19T01:52:21;93293.25;;;15.61;44.64
6150;BME280;3106;42.670;23.318;2023-01-19T01:54:50;93283.31;;;15.54;44.94
6150;BME280;3106;42.670;23.318;2023-01-19T01:57:18;93259.63;;;15.35;45.35
6150;BME280;3106;42.670;23.318;2023-01-19T01:59:47;93279.13;;;15.46;45.25
6150;BME280;3106;42.670;23.318;2023-01-19T02:02:18;93283.06;;;15.42;45.45
6150;BME280;3106;42.670;23.318;2023-01-19T02:05:04;93273.16;;;15.25;45.88
6150;BME280;3106;42.670;23.318;2023-01-19T02:07:37;93277.38;;;15.33;45.12
6150;BME280;3106;42.670;23.318;2023-01-19T02:10:24;93284.22;;;15.41;45.04
6150;BME280;3106;42.670;23.318;2023-01-19T02:13:09;93270.47;;;15.32;44.91
6150;BME280;3106;42.670;23.318;2023-01-19T02:15:49;93247.38;;;15.31;44.86
6150;BME280;3106;42.670;23.318;2023-01-19T02:18:17;93315.75;;;15.40;45.09
6150;BME280;3106;42.670;23.318;2023-01-19T02:20:51;93252.41;;;15.25;44.71
6150;BME280;3106;42.670;23.318;2023-01-19T02:23:27;93264.16;;;15.45;44.62
6150;BME280;3106;42.670;23.318;2023-01-19T02:25:57;93288.00;;;15.47;44.86
6150;BME280;3106;42.670;23.318;2023-01-19T02:28:26;93271.97;;;15.33;44.71
6150;BME280;3106;42.670;23.318;2023-01-19T02:30:54;93267.19;;;15.51;44.53
6150;BME280;3106;42.670;23.318;2023-01-19T02:33:20;93294.13;;;15.47;44.54
6150;BME280;3106;42.670;23.318;2023-01-19T02:35:48;93270.31;;;15.46;44.33
6150;BME280;3106;42.670;23.318;2023-01-19T02:38:18;93225.28;;;15.03;44.10
6150;BME280;3106;42.670;23.318;2023-01-19T02:40:47;93274.00;;;15.62;44.00
6150;BME280;3106;42.670;23.318;2023-01-19T02:43:16;93308.47;;;15.37;44.20
6150;BME280;3106;42.670;23.318;2023-01-19T02:45:45;93265.81;;;15.32;44.67
6150;BME280;3106;42.670;23.318;2023-01-19T02:48:13;93276.44;;;15.50;44.69
6150;BME280;3106;42.670;23.318;2023-01-19T02:50:43;93295.84;;;15.31;44.06
6150;BME280;3106;42.670;23.318;2023-01-19T02:53:26;93252.34;;;15.32;44.41
6150;BME280;3106;42.670;23.318;2023-01-19T02:56:09;93258.16;;;15.27;44.71
6150;BME280;3106;42.670;23.318;2023-01-19T02:58:44;93259.75;;;15.21;45.34
6150;BME280;3106;42.670;23.318;2023-01-19T03:01:20;93241.50;;;14.96;44.95
6150;BME280;3106;42.670;23.318;2023-01-19T03:03:53;93248.28;;;15.10;45.14
6150;BME280;3106;42.670;23.318;2023-01-19T03:06:32;93236.78;;;15.07;45.25
6150;BME280;3106;42.670;23.318;2023-01-19T03:09:07;93244.91;;;15.03;44.75
6150;BME280;3106;42.670;23.318;2023-01-19T03:11:41;93280.13;;;15.22;44.71
6150;BME280;3106;42.670;23.318;2023-01-19T03:14:13;93238.75;;;15.03;44.67
6150;BME280;3106;42.670;23.318;2023-01-19T03:16:46;93257.53;;;15.09;44.79
6150;BME280;3106;42.670;23.318;2023-01-19T03:19:16;93275.84;;;15.32;44.05
6150;BME280;3106;42.670;23.318;2023-01-19T03:21:47;93233.91;;;15.27;43.25
6150;BME280;3106;42.670;23.318;2023-01-19T03:24:17;93262.41;;;15.28;43.61
6150;BME280;3106;42.670;23.318;2023-01-19T03:26:50;93241.34;;;15.16;43.30
6150;BME280;3106;42.670;23.318;2023-01-19T03:29:21;93258.00;;;15.45;43.07
6150;BME280;3106;42.670;23.318;2023-01-19T03:31:51;93244.69;;;15.24;43.51
6150;BME280;3106;42.670;23.318;2023-01-19T03:34:20;93230.84;;;15.25;42.97
6150;BME280;3106;42.670;23.318;2023-01-19T03:36:51;93273.81;;;15.39;43.36
6150;BME280;3106;42.670;23.318;2023-01-19T03:39:21;93285.81;;;15.35;43.26
6150;BME280;3106;42.670;23.318;2023-01-19T03:41:52;93202.34;;;15.31;43.01
6150;BME280;3106;42.670;23.318;2023-01-19T03:44:21;93222.00;;;15.28;43.39
6150;BME280;3106;42.670;23.318;2023-01-19T03:46:50;93212.03;;;15.22;43.11
6150;BME280;3106;42.670;23.318;2023-01-19T03:49:17;93224.91;;;15.44;43.38
6150;BME280;3106;42.670;23.318;2023-01-19T03:51:45;93236.84;;;15.43;42.92
6150;BME280;3106;42.670;23.318;2023-01-19T03:54:11;93235.38;;;15.39;43.10
6150;BME280;3106;42.670;23.318;2023-01-19T03:56:38;93220.19;;;15.11;43.06
6150;BME280;3106;42.670;23.318;2023-01-19T03:59:06;93215.97;;;15.10;42.56
6150;BME280;3106;42.670;23.318;2023-01-19T04:01:33;93203.66;;;15.13;42.65
6150;BME280;3106;42.670;23.318;2023-01-19T04:04:00;93249.88;;;15.48;42.51
6150;BME280;3106;42.670;23.318;2023-01-19T04:06:27;93225.41;;;15.36;42.63
6150;BME280;3106;42.670;23.318;2023-01-19T04:08:54;93220.47;;;15.24;42.72
6150;BME280;3106;42.670;23.318;2023-01-19T04:11:20;93208.16;;;15.26;41.80
6150;BME280;3106;42.670;23.318;2023-01-19T04:13:50;93223.00;;;15.45;41.85
6150;BME280;3106;42.670;23.318;2023-01-19T04:16:18;93197.31;;;15.37;41.58
6150;BME280;3106;42.670;23.318;2023-01-19T04:18:45;93292.06;;;15.62;41.35
6150;BME280;3106;42.670;23.318;2023-01-19T04:21:14;93186.91;;;15.35;41.36
6150;BME280;3106;42.670;23.318;2023-01-19T04:23:41;93175.47;;;15.24;41.94
6150;BME280;3106;42.670;23.318;2023-01-19T04:26:08;93239.81;;;15.56;41.63
6150;BME280;3106;42.670;23.318;2023-01-19T04:28:36;93196.59;;;15.29;41.60
6150;BME280;3106;42.670;23.318;2023-01-19T04:31:03;93148.19;;;15.22;41.60
6150;BME280;3106;42.670;23.318;2023-01-19T04:33:31;93201.03;;;15.46;41.86
6150;BME280;3106;42.670;23.318;2023-01-19T04:35:58;93184.88;;;15.46;41.08
6150;BME280;3106;42.670;23.318;2023-01-19T04:38:26;93195.22;;;15.51;40.80
6150;BME280;3106;42.670;23.318;2023-01-19T04:40:53;93179.84;;;15.48;40.68
6150;BME280;3106;42.670;23.318;2023-01-19T04:43:21;93209.38;;;15.59;40.97
6150;BME280;3106;42.670;23.318;2023-01-19T04:45:48;93197.50;;;15.53;40.34
6150;BME280;3106;42.670;23.318;2023-01-19T04:48:16;93223.09;;;15.71;40.45
6150;BME280;3106;42.670;23.318;2023-01-19T04:50:45;93209.59;;;15.75;40.09
6150;BME280;3106;42.670;23.318;2023-01-19T04:53:12;93236.34;;;15.55;40.23
6150;BME280;3106;42.670;23.318;2023-01-19T04:55:40;93211.69;;;15.57;40.26
6150;BME280;3106;42.670;23.318;2023-01-19T04:58:07;93233.03;;;15.41;40.57
6150;BME280;3106;42.670;23.318;2023-01-19T05:00:34;93238.31;;;15.51;40.35
6150;BME280;3106;42.670;23.318;2023-01-19T05:03:01;93186.13;;;15.38;40.09
6150;BME280;3106;42.670;23.318;2023-01-19T05:05:29;93240.66;;;15.49;40.23
6150;BME280;3106;42.670;23.318;2023-01-19T05:07:58;93241.31;;;15.57;40.36
6150;BME280;3106;42.670;23.318;2023-01-19T05:10:25;93261.81;;;15.47;40.54
6150;BME280;3106;42.670;23.318;2023-01-19T05:12:52;93264.13;;;15.49;40.53
6150;BME280;3106;42.670;23.318;2023-01-19T05:15:19;93229.06;;;15.08;40.85
6150;BME280;3106;42.670;23.318;2023-01-19T05:17:45;93267.28;;;15.40;40.51
6150;BME280;3106;42.670;23.318;2023-01-19T05:20:13;93278.59;;;15.62;40.12
6150;BME280;3106;42.670;23.318;2023-01-19T05:22:40;93313.16;;;15.70;40.25
6150;BME280;3106;42.670;23.318;2023-01-19T05:25:08;93230.28;;;15.48;40.02
6150;BME280;3106;42.670;23.318;2023-01-19T05:27:35;93253.63;;;15.58;40.09
6150;BME280;3106;42.670;23.318;2023-01-19T05:30:03;93261.25;;;15.66;40.12
6150;BME280;3106;42.670;23.318;2023-01-19T05:32:30;93320.50;;;15.70;40.20
6150;BME280;3106;42.670;23.318;2023-01-19T05:34:57;93265.41;;;15.74;39.60
6150;BME280;3106;42.670;23.318;2023-01-19T05:37:23;93242.91;;;15.54;40.01
6150;BME280;3106;42.670;23.318;2023-01-19T05:39:51;93269.34;;;15.63;39.98
6150;BME280;3106;42.670;23.318;2023-01-19T05:42:19;93236.91;;;15.40;40.00
6150;BME280;3106;42.670;23.318;2023-01-19T05:44:46;93231.22;;;15.27;39.84
6150;BME280;3106;42.670;23.318;2023-01-19T05:47:18;93247.31;;;15.38;39.95
6150;BME280;3106;42.670;23.318;2023-01-19T05:49:47;93291.97;;;15.72;39.62
6150;BME280;3106;42.670;23.318;2023-01-19T05:52:14;93246.16;;;15.39;40.03
6150;BME280;3106;42.670;23.318;2023-01-19T05:54:41;93311.25;;;15.71;39.96
6150;BME280;3106;42.670;23.318;2023-01-19T05:57:07;93242.56;;;15.49;39.66
6150;BME280;3106;42.670;23.318;2023-01-19T05:59:36;93269.06;;;15.54;40.05
6150;BME280;3106;42.670;23.318;2023-01-19T06:02:03;93249.81;;;15.55;39.71
6150;BME280;3106;42.670;23.318;2023-01-19T06:04:29;93290.06;;;15.73;39.93
6150;BME280;3106;42.670;23.318;2023-01-19T06:06:56;93298.16;;;15.73;39.70
6150;BME280;3106;42.670;23.318;2023-01-19T06:09:24;93303.94;;;15.71;39.64
6150;BME280;3106;42.670;23.318;2023-01-19T06:11:50;93271.03;;;15.50;39.49
6150;BME280;3106;42.670;23.318;2023-01-19T06:14:20;93239.84;;;15.52;39.35
6150;BME280;3106;42.670;23.318;2023-01-19T06:16:49;93312.28;;;15.84;39.56
6150;BME280;3106;42.670;23.318;2023-01-19T06:19:15;93326.88;;;15.86;39.61
6150;BME280;3106;42.670;23.318;2023-01-19T06:21:42;93315.00;;;15.80;39.43
6150;BME280;3106;42.670;23.318;2023-01-19T06:24:14;93290.88;;;15.70;39.76
6150;BME280;3106;42.670;23.318;2023-01-19T06:26:40;93299.22;;;15.79;39.53
6150;BME280;3106;42.670;23.318;2023-01-19T06:29:08;93322.34;;;15.76;39.88
6150;BME280;3106;42.670;23.318;2023-01-19T06:31:35;93323.13;;;15.77;39.65
6150;BME280;3106;42.670;23.318;2023-01-19T06:34:04;93338.56;;;15.73;39.21
6150;BME280;3106;42.670;23.318;2023-01-19T06:36:31;93281.91;;;15.80;38.86
6150;BME280;3106;42.670;23.318;2023-01-19T06:39:09;93315.31;;;15.89;38.62
6150;BME280;3106;42.670;23.318;2023-01-19T06:41:36;93328.34;;;15.94;38.70
6150;BME280;3106;42.670;23.318;2023-01-19T06:44:04;93360.53;;;16.08;38.51
6150;BME280;3106;42.670;23.318;2023-01-19T06:46:31;93361.63;;;16.14;38.76
6150;BME280;3106;42.670;23.318;2023-01-19T06:48:59;93381.97;;;16.22;38.21
6150;BME280;3106;42.670;23.318;2023-01-19T06:51:27;93392.81;;;16.15;38.00
6150;BME280;3106;42.670;23.318;2023-01-19T06:53:54;93366.28;;;16.10;38.25
6150;BME280;3106;42.670;23.318;2023-01-19T06:56:22;93433.63;;;16.17;37.98
6150;BME280;3106;42.670;23.318;2023-01-19T06:58:48;93410.03;;;16.28;38.05
6150;BME280;3106;42.670;23.318;2023-01-19T07:01:17;93392.13;;;16.08;37.82
6150;BME280;3106;42.670;23.318;2023-01-19T07:03:47;93335.72;;;16.20;37.84
6150;BME280;3106;42.670;23.318;2023-01-19T07:06:14;93416.91;;;16.36;37.98
6150;BME280;3106;42.670;23.318;2023-01-19T07:08:42;93389.00;;;16.13;37.59
6150;BME280;3106;42.670;23.318;2023-01-19T07:11:11;93400.25;;;16.45;37.70
6150;BME280;3106;42.670;23.318;2023-01-19T07:13:40;93371.78;;;16.37;37.44
6150;BME280;3106;42.670;23.318;2023-01-19T07:16:10;93382.59;;;16.37;37.27
6150;BME280;3106;42.670;23.318;2023-01-19T07:18:39;93397.84;;;16.50;37.42
6150;BME280;3106;42.670;23.318;2023-01-19T07:21:06;93385.31;;;16.33;37.21
6150;BME280;3106;42.670;23.318;2023-01-19T07:23:33;93362.88;;;16.43;36.51
6150;BME280;3106;42.670;23.318;2023-01-19T07:26:03;93405.81;;;16.64;36.68
6150;BME280;3106;42.670;23.318;2023-01-19T07:28:32;93375.09;;;16.51;36.29
6150;BME280;3106;42.670;23.318;2023-01-19T07:30:59;93371.09;;;16.63;35.76
6150;BME280;3106;42.670;23.318;2023-01-19T07:33:25;93414.09;;;16.76;35.84
6150;BME280;3106;42.670;23.318;2023-01-19T07:35:54;93429.88;;;16.81;35.98
6150;BME280;3106;42.670;23.318;2023-01-19T07:38:21;93350.16;;;16.44;35.73
6150;BME280;3106;42.670;23.318;2023-01-19T07:40:48;93417.50;;;16.84;36.24
6150;BME280;3106;42.670;23.318;2023-01-19T07:43:16;93400.53;;;16.83;36.46
6150;BME280;3106;42.670;23.318;2023-01-19T07:45:44;93378.28;;;16.72;36.08
6150;BME280;3106;42.670;23.318;2023-01-19T07:48:12;93368.81;;;16.61;35.85
6150;BME280;3106;42.670;23.318;2023-01-19T07:50:39;93388.81;;;16.97;35.55
6150;BME280;3106;42.670;23.318;2023-01-19T07:53:07;93425.59;;;16.84;35.55
6150;BME280;3106;42.670;23.318;2023-01-19T07:55:36;93397.06;;;16.83;35.64
6150;BME280;3106;42.670;23.318;2023-01-19T07:58:03;93410.94;;;17.11;34.72
6150;BME280;3106;42.670;23.318;2023-01-19T08:00:34;93354.72;;;16.76;34.73
6150;BME280;3106;42.670;23.318;2023-01-19T08:03:02;93393.38;;;17.00;34.90
6150;BME280;3106;42.670;23.318;2023-01-19T08:05:30;93422.22;;;17.06;35.10
6150;BME280;3106;42.670;23.318;2023-01-19T08:07:57;93400.72;;;16.99;35.21
6150;BME280;3106;42.670;23.318;2023-01-19T08:10:26;93382.22;;;16.98;34.98
6150;BME280;3106;42.670;23.318;2023-01-19T08:12:56;93420.34;;;17.30;34.94
6150;BME280;3106;42.670;23.318;2023-01-19T08:15:24;93400.94;;;17.38;34.43
6150;BME280;3106;42.670;23.318;2023-01-19T08:17:56;93427.97;;;17.65;34.29
6150;BME280;3106;42.670;23.318;2023-01-19T08:20:24;93395.75;;;17.51;34.21
6150;BME280;3106;42.670;23.318;2023-01-19T08:22:51;93389.41;;;17.61;33.50
6150;BME280;3106;42.670;23.318;2023-01-19T08:25:24;93407.50;;;17.64;33.53
6150;BME280;3106;42.670;23.318;2023-01-19T08:27:54;93334.09;;;17.42;33.55
6150;BME280;3106;42.670;23.318;2023-01-19T08:30:21;93426.47;;;17.87;33.83
6150;BME280;3106;42.670;23.318;2023-01-19T08:32:52;93382.44;;;17.63;33.45
6150;BME280;3106;42.670;23.318;2023-01-19T08:35:20;93412.63;;;17.58;33.86
6150;BME280;3106;42.670;23.318;2023-01-19T08:37:48;93418.66;;;17.66;33.78
6150;BME280;3106;42.670;23.318;2023-01-19T08:40:15;93375.34;;;17.46;34.01
6150;BME280;3106;42.670;23.318;2023-01-19T08:42:42;93487.59;;;17.81;34.18
6150;BME280;3106;42.670;23.318;2023-01-19T08:45:10;93475.16;;;17.60;34.03
6150;BME280;3106;42.670;23.318;2023-01-19T08:47:36;93420.44;;;17.53;34.55
6150;BME280;3106;42.670;23.318;2023-01-19T08:50:04;93431.09;;;17.63;34.41
6150;BME280;3106;42.670;23.318;2023-01-19T08:52:32;93423.16;;;17.49;34.14
6150;BME280;3106;42.670;23.318;2023-01-19T08:54:59;93443.34;;;17.68;33.90
6150;BME280;3106;42.670;23.318;2023-01-19T08:57:27;93458.50;;;17.88;34.34
6150;BME280;3106;42.670;23.318;2023-01-19T08:59:55;93453.53;;;17.60;34.41
6150;BME280;3106;42.670;23.318;2023-01-19T09:02:22;93441.81;;;17.67;34.43
6150;BME280;3106;42.670;23.318;2023-01-19T09:04:48;93460.47;;;17.61;34.59
6150;BME280;3106;42.670;23.318;2023-01-19T09:07:17;93438.78;;;17.65;34.46
6150;BME280;3106;42.670;23.318;2023-01-19T09:09:45;93460.88;;;17.86;34.68
6150;BME280;3106;42.670;23.318;2023-01-19T09:12:12;93450.59;;;17.74;34.44
6150;BME280;3106;42.670;23.318;2023-01-19T09:14:42;93433.91;;;17.79;34.73
6150;BME280;3106;42.670;23.318;2023-01-19T09:17:14;93419.84;;;17.65;34.39
6150;BME280;3106;42.670;23.318;2023-01-19T09:19:44;93426.56;;;18.03;34.08
6150;BME280;3106;42.670;23.318;2023-01-19T09:22:11;93421.63;;;17.98;33.81
6150;BME280;3106;42.670;23.318;2023-01-19T09:24:38;93428.91;;;18.23;33.62
6150;BME280;3106;42.670;23.318;2023-01-19T09:27:06;93425.66;;;18.13;34.02
6150;BME280;3106;42.670;23.318;2023-01-19T09:29:33;93428.16;;;18.00;33.47
6150;BME280;3106;42.670;23.318;2023-01-19T09:32:00;93384.81;;;18.04;33.58
6150;BME280;3106;42.670;23.318;2023-01-19T09:34:27;93440.97;;;18.19;33.87
6150;BME280;3106;42.670;23.318;2023-01-19T09:36:58;93400.94;;;18.11;33.71
6150;BME280;3106;42.670;23.318;2023-01-19T09:39:25;93421.69;;;18.40;33.53
6150;BME280;3106;42.670;23.318;2023-01-19T09:41:59;93441.00;;;18.42;33.56
6150;BME280;3106;42.670;23.318;2023-01-19T09:44:31;93388.44;;;18.39;33.51
6150;BME280;3106;42.670;23.318;2023-01-19T09:47:01;93419.50;;;18.54;33.44
6150;BME280;3106;42.670;23.318;2023-01-19T09:49:32;93439.34;;;18.67;33.49
6150;BME280;3106;42.670;23.318;2023-01-19T09:52:01;93412.69;;;18.46;33.83
6150;BME280;3106;42.670;23.318;2023-01-19T09:54:31;93386.56;;;18.36;33.61
6150;BME280;3106;42.670;23.318;2023-01-19T09:57:08;93441.88;;;18.13;33.80
6150;BME280;3106;42.670;23.318;2023-01-19T09:59:37;93400.69;;;18.02;33.69
6150;BME280;3106;42.670;23.318;2023-01-19T10:02:14;93383.66;;;18.05;33.89
6150;BME280;3106;42.670;23.318;2023-01-19T10:04:49;93363.06;;;18.11;33.47
6150;BME280;3106;42.670;23.318;2023-01-19T10:07:30;93367.91;;;18.19;33.50
6150;BME280;3106;42.670;23.318;2023-01-19T10:10:11;93369.03;;;18.22;33.62
6150;BME280;3106;42.670;23.318;2023-01-19T10:12:47;93353.53;;;18.03;33.84
6150;BME280;3106;42.670;23.318;2023-01-19T10:15:25;93380.53;;;18.29;33.83
6150;BME280;3106;42.670;23.318;2023-01-19T10:18:07;93375.13;;;18.48;33.67
6150;BME280;3106;42.670;23.318;2023-01-19T10:20:41;93378.09;;;18.34;34.07
6150;BME280;3106;42.670;23.318;2023-01-19T10:23:38;93374.66;;;18.34;34.28
6150;BME280;3106;42.670;23.318;2023-01-19T10:26:09;93377.34;;;18.34;34.35
6150;BME280;3106;42.670;23.318;2023-01-19T10:28:40;93346.25;;;18.00;34.38
6150;BME280;3106;42.670;23.318;2023-01-19T10:31:12;93380.22;;;18.01;34.13
6150;BME280;3106;42.670;23.318;2023-01-19T10:33:42;93344.31;;;18.00;34.16
6150;BME280;3106;42.670;23.318;2023-01-19T10:36:16;93374.84;;;18.43;34.18
6150;BME280;3106;42.670;23.318;2023-01-19T10:38:46;93383.50;;;18.34;33.85
6150;BME280;3106;42.670;23.318;2023-01-19T10:41:17;93401.50;;;18.22;33.72
6150;BME280;3106;42.670;23.318;2023-01-19T10:43:47;93387.81;;;18.09;33.98
6150;BME280;3106;42.670;23.318;2023-01-19T10:46:29;93361.16;;;17.88;33.98
6150;BME280;3106;42.670;23.318;2023-01-19T10:48:58;93364.63;;;17.89;34.37
6150;BME280;3106;42.670;23.318;2023-01-19T10:51:25;93385.59;;;17.81;34.65
6150;BME280;3106;42.670;23.318;2023-01-19T10:53:55;93310.34;;;17.34;34.77
6150;BME280;3106;42.670;23.318;2023-01-19T10:56:24;93342.81;;;17.53;34.84
6150;BME280;3106;42.670;23.318;2023-01-19T10:58:52;93300.28;;;17.31;34.71
6150;BME280;3106;42.670;23.318;2023-01-19T11:01:24;93366.13;;;17.67;34.74
6150;BME280;3106;42.670;23.318;2023-01-19T11:04:18;93366.97;;;17.87;35.11
6150;BME280;3106;42.670;23.318;2023-01-19T11:06:46;93284.84;;;17.31;35.04
6150;BME280;3106;42.670;23.318;2023-01-19T11:09:16;93356.41;;;17.73;35.15
6150;BME280;3106;42.670;23.318;2023-01-19T11:11:59;93404.81;;;17.87;35.03
6150;BME280;3106;42.670;23.318;2023-01-19T11:14:29;93348.38;;;17.66;34.82
6150;BME280;3106;42.670;23.318;2023-01-19T11:16:58;93358.16;;;17.83;34.63
6150;BME280;3106;42.670;23.318;2023-01-19T11:19:27;93341.81;;;17.67;35.10
6150;BME280;3106;42.670;23.318;2023-01-19T11:22:10;93350.81;;;17.60;34.94
6150;BME280;3106;42.670;23.318;2023-01-19T11:24:42;93291.13;;;17.25;34.93
6150;BME280;3106;42.670;23.318;2023-01-19T11:27:09;93342.75;;;17.57;34.63
6150;BME280;3106;42.670;23.318;2023-01-19T11:29:36;93306.22;;;17.49;34.87
6150;BME280;3106;42.670;23.318;2023-01-19T11:32:21;93343.81;;;17.86;34.78
6150;BME280;3106;42.670;23.318;2023-01-19T11:34:52;93343.09;;;17.82;34.57
6150;BME280;3106;42.670;23.318;2023-01-19T11:37:28;93317.56;;;17.63;34.50
6150;BME280;3106;42.670;23.318;2023-01-19T11:40:09;93333.13;;;17.56;35.02
6150;BME280;3106;42.670;23.318;2023-01-19T11:42:38;93329.25;;;17.57;34.60
6150;BME280;3106;42.670;23.318;2023-01-19T11:45:11;93339.47;;;17.46;34.33
6150;BME280;3106;42.670;23.318;2023-01-19T11:47:54;93306.38;;;17.38;34.17
6150;BME280;3106;42.670;23.318;2023-01-19T11:50:32;93336.25;;;17.54;34.83
6150;BME280;3106;42.670;23.318;2023-01-19T11:53:05;93330.88;;;17.51;34.74
6150;BME280;3106;42.670;23.318;2023-01-19T11:55:46;93318.19;;;17.71;34.35
6150;BME280;3106;42.670;23.318;2023-01-19T11:58:18;93329.06;;;17.67;34.47
6150;BME280;3106;42.670;23.318;2023-01-19T12:00:48;93313.84;;;17.54;34.46
6150;BME280;3106;42.670;23.318;2023-01-19T12:03:37;93320.72;;;17.58;34.61
6150;BME280;3106;42.670;23.318;2023-01-19T12:06:09;93280.31;;;17.25;33.93
6150;BME280;3106;42.670;23.318;2023-01-19T12:08:41;93273.47;;;17.43;34.42
6150;BME280;3106;42.670;23.318;2023-01-19T12:11:15;93287.81;;;17.40;34.57
6150;BME280;3106;42.670;23.318;2023-01-19T12:13:44;93245.41;;;17.14;34.44
6150;BME280;3106;42.670;23.318;2023-01-19T12:16:19;93274.66;;;17.42;34.40
6150;BME280;3106;42.670;23.318;2023-01-19T12:18:51;93279.88;;;17.53;33.99
6150;BME280;3106;42.670;23.318;2023-01-19T12:21:20;93327.72;;;17.79;34.07
6150;BME280;3106;42.670;23.318;2023-01-19T12:23:55;93279.53;;;17.74;33.78
6150;BME280;3106;42.670;23.318;2023-01-19T12:26:34;93311.00;;;17.84;33.96
6150;BME280;3106;42.670;23.318;2023-01-19T12:29:05;93297.56;;;18.00;33.40
6150;BME280;3106;42.670;23.318;2023-01-19T12:31:36;93265.41;;;17.86;33.38
6150;BME280;3106;42.670;23.318;2023-01-19T12:34:28;93330.25;;;18.09;33.05
6150;BME280;3106;42.670;23.318;2023-01-19T12:37:06;93328.84;;;18.01;33.15
6150;BME280;3106;42.670;23.318;2023-01-19T12:39:33;93284.38;;;17.82;33.49
6150;BME280;3106;42.670;23.318;2023-01-19T12:42:06;93301.66;;;17.88;33.48
6150;BME280;3106;42.670;23.318;2023-01-19T12:44:37;93331.34;;;17.92;33.83
6150;BME280;3106;42.670;23.318;2023-01-19T12:47:20;93319.66;;;17.75;33.67
6150;BME280;3106;42.670;23.318;2023-01-19T12:49:54;93316.31;;;17.68;34.07
6150;BME280;3106;42.670;23.318;2023-01-19T12:52:38;93330.78;;;17.58;34.28
6150;BME280;3106;42.670;23.318;2023-01-19T12:55:19;93341.69;;;17.51;34.52
6150;BME280;3106;42.670;23.318;2023-01-19T12:57:53;93293.78;;;17.28;34.82
6150;BME280;3106;42.670;23.318;2023-01-19T13:00:31;93326.44;;;17.41;35.27
6150;BME280;3106;42.670;23.318;2023-01-19T13:03:04;93310.34;;;17.30;35.11
6150;BME280;3106;42.670;23.318;2023-01-19T13:05:52;93331.84;;;17.41;34.94
6150;BME280;3106;42.670;23.318;2023-01-19T13:09:00;93271.31;;;17.08;34.54
6150;BME280;3106;42.670;23.318;2023-01-19T13:12:09;93333.94;;;17.53;34.34
6150;BME280;3106;42.670;23.318;2023-01-19T13:14:44;93261.59;;;17.14;33.80
6150;BME280;3106;42.670;23.318;2023-01-19T13:17:32;93339.63;;;17.81;33.77
6150;BME280;3106;42.670;23.318;2023-01-19T13:20:25;93338.31;;;17.70;33.99
6150;BME280;3106;42.670;23.318;2023-01-19T13:23:19;93344.59;;;17.63;34.08
6150;BME280;3106;42.670;23.318;2023-01-19T13:26:10;93348.81;;;17.64;33.98
6150;BME280;3106;42.670;23.318;2023-01-19T13:28:50;93287.69;;;17.24;34.17